Time;durP1;ratioP1;P1;durP2;ratioP2;P2;SDS_P1;SDS_P2;PMS_P1;PMS_P2;Temp;Humidity;BMP_temperature;BMP_pressure;BME280_temperature;BME280_humidity;BME280_pressure;Samples;Min_cycle;Max_cycle;Signal;HPM_P1;HPM_P2
2023/09/01 00:00:03;;;;;;;5.10;3.17;;;14.10;99.90;;;;;;4915295;29;20491;-85
2023/09/01 00:02:28;;;;;;;7.72;3.47;;;14.10;99.90;;;;;;4916722;29;20066;-86
2023/09/01 00:04:55;;;;;;;6.65;3.35;;;14.20;99.90;;;;;;4916813;29;20157;-86
2023/09/01 00:07:21;;;;;;;5.20;3.17;;;14.20;99.90;;;;;;4913933;29;20142;-86
2023/09/01 00:09:46;;;;;;;8.70;3.50;;;14.20;99.90;;;;;;4914027;29;20479;-86
2023/09/01 00:12:12;;;;;;;4.90;3.28;;;14.10;99.90;;;;;;4915474;29;20036;-86
2023/09/01 00:14:37;;;;;;;6.30;3.40;;;14.20;99.90;;;;;;4915011;29;20035;-86
2023/09/01 00:17:03;;;;;;;7.68;3.65;;;14.20;99.90;;;;;;4916001;29;20015;-87
2023/09/01 00:19:29;;;;;;;5.18;3.78;;;14.10;99.90;;;;;;4916728;29;20039;-88
2023/09/01 00:21:54;;;;;;;9.57;3.85;;;14.10;99.90;;;;;;4914695;29;20039;-89
2023/09/01 00:24:20;;;;;;;6.68;4.07;;;14.20;99.90;;;;;;4916610;29;20118;-89
2023/09/01 00:26:45;;;;;;;12.27;4.28;;;14.10;99.90;;;;;;4915098;29;20036;-89
2023/09/01 00:29:11;;;;;;;6.18;4.22;;;14.10;99.90;;;;;;4916963;29;20135;-89
2023/09/01 00:31:36;;;;;;;6.25;4.30;;;14.00;99.90;;;;;;4915069;29;20055;-88
2023/09/01 00:34:03;;;;;;;6.10;4.18;;;14.00;99.90;;;;;;4915658;29;20032;-88
2023/09/01 00:36:29;;;;;;;5.70;4.13;;;14.00;99.90;;;;;;4913797;29;20024;-88
2023/09/01 00:38:54;;;;;;;7.60;4.80;;;13.90;99.90;;;;;;4914580;29;20047;-86
2023/09/01 00:41:20;;;;;;;7.30;4.32;;;13.90;99.90;;;;;;4915154;29;20043;-86
2023/09/01 00:43:45;;;;;;;6.40;4.40;;;13.90;99.90;;;;;;4915029;29;20028;-87
2023/09/01 00:46:11;;;;;;;5.55;4.55;;;13.80;99.90;;;;;;4915847;29;20036;-88
2023/09/01 00:48:37;;;;;;;12.95;5.22;;;13.80;99.90;;;;;;4917141;29;20035;-90
2023/09/01 00:51:03;;;;;;;13.18;5.68;;;13.80;99.90;;;;;;4919630;29;20083;-88
2023/09/01 00:53:29;;;;;;;9.63;5.28;;;13.70;99.90;;;;;;4918183;29;20035;-88
2023/09/01 00:55:57;;;;;;;6.00;5.28;;;13.70;99.90;;;;;;4918201;29;20035;-88
2023/09/01 00:58:25;;;;;;;7.00;5.35;;;13.70;99.90;;;;;;4921982;29;20027;-88
2023/09/01 01:00:52;;;;;;;7.57;5.35;;;13.70;99.90;;;;;;4918365;29;20031;-88
2023/09/01 01:03:18;;;;;;;9.52;5.70;;;13.70;99.90;;;;;;4918725;29;20024;-88
2023/09/01 01:06:19;;;;;;;10.48;5.72;;;13.70;99.90;;;;;;4916989;29;20135;-88
2023/09/01 01:09:12;;;;;;;7.20;5.65;;;13.60;99.90;;;;;;4920549;29;20036;-88
2023/09/01 01:12:02;;;;;;;7.43;5.55;;;13.60;99.90;;;;;;4919049;29;20062;-88
2023/09/01 01:14:48;;;;;;;8.73;5.63;;;13.70;99.90;;;;;;4916897;29;20558;-88
2023/09/01 01:17:19;;;;;;;8.27;6.15;;;13.60;99.90;;;;;;4916684;29;20036;-88
2023/09/01 01:19:47;;;;;;;8.98;5.30;;;13.60;99.90;;;;;;4918755;29;20032;-87
2023/09/01 01:22:13;;;;;;;7.68;6.07;;;13.70;99.90;;;;;;4918891;29;20083;-87
2023/09/01 01:24:38;;;;;;;7.78;5.90;;;13.60;99.90;;;;;;4917531;29;20119;-88
2023/09/01 01:27:04;;;;;;;10.48;6.20;;;13.70;99.90;;;;;;4919544;29;20471;-87
2023/09/01 01:29:30;;;;;;;8.80;6.10;;;13.70;99.90;;;;;;4918457;29;20388;-88
2023/09/01 01:31:57;;;;;;;7.97;6.00;;;13.70;99.90;;;;;;4919389;29;20036;-87
2023/09/01 01:34:40;;;;;;;10.68;6.65;;;13.70;99.90;;;;;;4918795;29;20384;-87
2023/09/01 01:37:38;;;;;;;8.18;6.00;;;13.70;99.90;;;;;;4918615;29;20028;-88
2023/09/01 01:40:07;;;;;;;9.50;6.65;;;13.70;99.90;;;;;;4880365;29;20032;-87
2023/09/01 01:42:35;;;;;;;9.40;5.97;;;13.70;99.90;;;;;;4919069;29;20122;-87
2023/09/01 01:45:02;;;;;;;8.52;6.05;;;13.70;99.90;;;;;;4917018;29;20040;-87
2023/09/01 01:47:28;;;;;;;9.07;6.40;;;13.70;99.90;;;;;;4917272;29;20039;-88
2023/09/01 01:49:54;;;;;;;11.02;6.78;;;13.70;99.90;;;;;;4919911;29;20115;-87
2023/09/01 01:52:19;;;;;;;9.35;6.88;;;13.70;99.90;;;;;;4918195;29;20066;-87
2023/09/01 01:54:45;;;;;;;10.30;6.55;;;13.70;99.90;;;;;;4920309;29;20130;-87
2023/09/01 01:57:14;;;;;;;7.35;6.20;;;13.70;99.90;;;;;;4917820;29;20047;-86
2023/09/01 01:59:42;;;;;;;8.88;6.90;;;13.70;99.90;;;;;;4917161;29;20032;-87
2023/09/01 02:02:08;;;;;;;12.52;7.25;;;13.70;99.90;;;;;;4916325;29;20430;-87
2023/09/01 02:04:34;;;;;;;8.38;6.07;;;13.70;99.90;;;;;;4918259;29;20032;-88
2023/09/01 02:06:59;;;;;;;7.53;6.38;;;13.70;99.90;;;;;;4918589;29;20024;-86
2023/09/01 02:09:26;;;;;;;9.30;7.38;;;13.70;99.90;;;;;;4917331;29;20039;-87
2023/09/01 02:11:51;;;;;;;8.95;6.47;;;13.70;99.90;;;;;;4916673;29;20052;-87
2023/09/01 02:14:18;;;;;;;11.88;6.90;;;13.70;99.90;;;;;;4918026;29;20460;-87
2023/09/01 02:16:43;;;;;;;9.38;6.70;;;13.60;99.90;;;;;;4915499;29;20575;-87
2023/09/01 02:19:11;;;;;;;9.60;7.15;;;13.60;99.90;;;;;;4916104;29;20031;-87
2023/09/01 02:21:37;;;;;;;7.47;6.65;;;13.60;99.90;;;;;;4914519;29;20038;-87
2023/09/01 02:24:05;;;;;;;9.48;6.53;;;13.50;99.90;;;;;;4914981;29;20032;-86
2023/09/01 02:26:31;;;;;;;8.05;6.35;;;13.50;99.90;;;;;;4916670;29;20059;-87
2023/09/01 02:28:57;;;;;;;9.93;6.68;;;13.50;99.90;;;;;;4917162;29;20123;-88
2023/09/01 02:31:24;;;;;;;9.90;6.45;;;13.50;99.90;;;;;;4914803;29;20031;-87
2023/09/01 02:33:50;;;;;;;7.60;6.60;;;13.50;99.90;;;;;;4916378;29;21636;-86
2023/09/01 02:36:29;;;;;;;8.02;6.32;;;13.50;99.90;;;;;;4917977;29;20036;-86
2023/09/01 02:38:56;;;;;;;8.77;6.28;;;13.50;99.90;;;;;;4918685;29;20031;-87
2023/09/01 02:41:23;;;;;;;9.98;6.32;;;13.50;99.90;;;;;;4917287;29;20707;-86
2023/09/01 02:43:48;;;;;;;9.00;6.25;;;13.50;99.90;;;;;;4916164;29;20082;-87
2023/09/01 02:46:14;;;;;;;8.98;5.70;;;13.50;99.90;;;;;;4917792;29;20028;-86
2023/09/01 02:48:39;;;;;;;7.32;5.78;;;13.50;99.90;;;;;;4916062;29;20031;-87
2023/09/01 02:51:06;;;;;;;7.72;6.05;;;13.50;99.90;;;;;;4916408;29;20035;-87
2023/09/01 02:53:35;;;;;;;7.18;5.68;;;13.50;99.90;;;;;;4916413;29;20039;-86
2023/09/01 02:56:01;;;;;;;7.75;5.90;;;13.50;99.90;;;;;;4917341;29;20098;-87
2023/09/01 02:58:27;;;;;;;8.60;5.47;;;13.40;99.90;;;;;;4919592;29;20020;-87
2023/09/01 03:00:53;;;;;;;6.55;5.70;;;13.40;99.90;;;;;;4918228;29;20043;-87
2023/09/01 03:03:19;;;;;;;8.30;5.80;;;13.40;99.90;;;;;;4918007;29;20047;-87
2023/09/01 03:05:49;;;;;;;8.18;5.95;;;13.40;99.90;;;;;;4918972;29;20024;-87
2023/09/01 03:08:17;;;;;;;8.45;5.45;;;13.40;99.90;;;;;;4917043;29;20023;-88
2023/09/01 03:10:42;;;;;;;7.38;5.10;;;13.40;99.90;;;;;;4916498;29;20055;-87
2023/09/01 03:13:08;;;;;;;8.82;5.25;;;13.40;99.90;;;;;;4917220;29;20165;-86
2023/09/01 03:15:33;;;;;;;6.47;5.07;;;13.40;99.90;;;;;;4915496;29;20039;-86
2023/09/01 03:17:59;;;;;;;7.05;4.53;;;13.40;99.90;;;;;;4917490;29;20107;-86
2023/09/01 03:20:25;;;;;;;7.13;4.55;;;13.50;99.90;;;;;;4916683;29;20039;-85
2023/09/01 03:22:50;;;;;;;6.30;4.50;;;13.50;99.90;;;;;;4916968;29;20036;-86
2023/09/01 03:25:17;;;;;;;7.22;4.28;;;13.50;99.90;;;;;;4915650;29;20106;-87
2023/09/01 03:27:43;;;;;;;6.35;4.30;;;13.50;99.90;;;;;;4913968;29;20119;-86
2023/09/01 03:30:10;;;;;;;5.25;3.97;;;13.50;99.90;;;;;;4917201;29;20032;-85
2023/09/01 03:32:37;;;;;;;6.18;4.43;;;13.60;99.90;;;;;;4914587;29;20423;-86
2023/09/01 03:35:03;;;;;;;9.57;4.93;;;13.60;99.90;;;;;;4916314;29;20024;-85
2023/09/01 03:37:29;;;;;;;5.70;4.45;;;13.60;99.90;;;;;;4918343;29;20079;-86
2023/09/01 03:39:54;;;;;;;5.50;4.07;;;13.60;99.90;;;;;;4914603;29;20032;-86
2023/09/01 03:42:20;;;;;;;6.15;4.22;;;13.70;99.90;;;;;;4917275;29;20031;-85
2023/09/01 03:44:46;;;;;;;6.90;4.53;;;13.60;99.90;;;;;;4916684;29;21300;-87
2023/09/01 03:47:13;;;;;;;4.97;4.30;;;13.70;99.90;;;;;;4914904;29;20118;-85
2023/09/01 03:49:38;;;;;;;5.90;4.35;;;13.70;99.90;;;;;;4915287;29;20044;-85
2023/09/01 03:52:04;;;;;;;5.53;4.55;;;13.70;99.90;;;;;;4915797;29;20028;-85
2023/09/01 03:54:30;;;;;;;8.82;4.38;;;13.70;99.90;;;;;;4915662;29;20664;-85
2023/09/01 03:56:55;;;;;;;6.72;4.40;;;13.60;99.90;;;;;;4915672;29;20050;-85
2023/09/01 03:59:21;;;;;;;6.63;4.75;;;13.60;99.90;;;;;;4915439;29;20036;-86
2023/09/01 04:01:47;;;;;;;5.85;4.50;;;13.70;99.90;;;;;;4915681;29;20495;-86
2023/09/01 04:04:14;;;;;;;5.75;4.57;;;13.60;99.90;;;;;;4915789;29;20036;-89
2023/09/01 04:06:40;;;;;;;4.93;4.30;;;13.70;99.90;;;;;;4914420;29;20157;-88
2023/09/01 04:09:06;;;;;;;7.13;4.28;;;13.60;99.90;;;;;;4918418;29;20032;-81
2023/09/01 04:11:32;;;;;;;5.35;3.85;;;13.70;99.90;;;;;;4920786;29;21387;-82
2023/09/01 04:13:58;;;;;;;6.82;3.60;;;13.70;99.90;;;;;;4911765;29;20058;-82
2023/09/01 04:16:24;;;;;;;6.63;4.22;;;13.70;99.90;;;;;;4911147;29;20056;-81
2023/09/01 04:18:50;;;;;;;7.28;4.20;;;13.70;99.90;;;;;;4916976;29;20134;-81
2023/09/01 04:21:16;;;;;;;6.65;4.38;;;13.70;99.90;;;;;;4917972;29;20027;-82
2023/09/01 04:23:41;;;;;;;4.47;4.07;;;13.70;99.90;;;;;;4911548;29;20524;-81
2023/09/01 04:26:07;;;;;;;6.43;4.07;;;13.70;99.90;;;;;;4913087;29;20200;-81
2023/09/01 04:28:33;;;;;;;5.90;4.13;;;13.70;99.90;;;;;;4914822;29;20087;-81
2023/09/01 04:30:59;;;;;;;5.28;3.90;;;13.70;99.90;;;;;;4922274;29;20032;-82
2023/09/01 04:33:28;;;;;;;6.75;4.05;;;13.70;99.90;;;;;;4922478;29;20035;-81
2023/09/01 04:36:03;;;;;;;4.80;3.60;;;13.70;99.90;;;;;;4923022;29;20091;-81
2023/09/01 04:38:29;;;;;;;8.27;3.80;;;13.70;99.90;;;;;;4923382;29;20038;-81
2023/09/01 04:40:56;;;;;;;4.93;3.83;;;13.70;99.90;;;;;;4921336;29;20036;-81
2023/09/01 04:43:21;;;;;;;6.32;3.53;;;13.70;99.90;;;;;;4924308;29;21515;-81
2023/09/01 04:45:47;;;;;;;4.72;3.70;;;13.80;99.90;;;;;;4922624;29;20119;-80
2023/09/01 04:48:13;;;;;;;5.38;3.67;;;13.80;99.90;;;;;;4922718;29;20440;-80
2023/09/01 04:50:39;;;;;;;6.63;3.40;;;13.80;99.90;;;;;;4922171;29;20079;-81
2023/09/01 04:53:04;;;;;;;4.28;3.50;;;13.80;99.90;;;;;;4924037;29;20032;-81
2023/09/01 04:55:30;;;;;;;4.97;3.80;;;13.80;99.90;;;;;;4920927;29;20826;-78
2023/09/01 04:57:55;;;;;;;5.30;3.63;;;13.80;99.90;;;;;;4918564;29;20399;-79
2023/09/01 05:00:21;;;;;;;6.32;3.45;;;13.80;99.90;;;;;;4918401;29;20254;-80
2023/09/01 05:02:46;;;;;;;6.75;3.67;;;13.80;99.90;;;;;;4919273;29;20107;-79
2023/09/01 05:05:13;;;;;;;6.07;3.40;;;13.80;99.90;;;;;;4917491;29;20503;-79
2023/09/01 05:07:39;;;;;;;7.60;3.10;;;13.90;99.90;;;;;;4915809;29;20067;-79
2023/09/01 05:10:05;;;;;;;4.07;3.10;;;13.90;99.90;;;;;;4919478;29;20119;-79
2023/09/01 05:12:31;;;;;;;4.88;3.55;;;14.00;99.90;;;;;;4919384;29;20079;-79
2023/09/01 05:14:57;;;;;;;4.68;3.38;;;14.00;99.90;;;;;;4919933;29;20499;-76
2023/09/01 05:17:22;;;;;;;4.68;2.63;;;14.10;99.90;;;;;;4918283;29;20027;-79
2023/09/01 05:19:48;;;;;;;4.75;2.88;;;14.20;99.90;;;;;;4918908;29;20062;-79
2023/09/01 05:22:13;;;;;;;4.18;2.67;;;14.20;99.90;;;;;;4917813;29;20048;-79
2023/09/01 05:24:40;;;;;;;4.75;2.70;;;14.30;99.90;;;;;;4916570;29;20075;-76
2023/09/01 05:27:06;;;;;;;3.58;2.53;;;14.40;99.90;;;;;;4916524;29;20034;-78
2023/09/01 05:29:31;;;;;;;5.28;2.70;;;14.50;99.90;;;;;;4916610;29;20020;-84
2023/09/01 05:31:57;;;;;;;4.22;2.50;;;14.50;99.90;;;;;;4919092;29;20034;-85
2023/09/01 05:34:23;;;;;;;3.80;2.50;;;14.60;99.90;;;;;;4916400;29;20517;-83
2023/09/01 05:36:48;;;;;;;4.68;3.30;;;14.60;99.90;;;;;;4917220;29;20055;-83
2023/09/01 05:39:14;;;;;;;4.28;2.80;;;14.60;99.90;;;;;;4917913;29;20043;-83
2023/09/01 05:41:40;;;;;;;7.05;2.80;;;14.70;99.90;;;;;;4918701;29;20020;-83
2023/09/01 05:44:05;;;;;;;5.38;2.83;;;14.70;99.90;;;;;;4918660;29;20036;-83
2023/09/01 05:46:31;;;;;;;5.75;3.03;;;14.70;99.90;;;;;;4919351;29;20119;-83
2023/09/01 05:48:56;;;;;;;3.35;2.55;;;14.80;99.90;;;;;;4918921;29;20024;-83
2023/09/01 05:51:22;;;;;;;3.50;2.13;;;14.90;99.90;;;;;;4916678;29;20031;-83
2023/09/01 05:53:47;;;;;;;4.45;2.47;;;14.90;99.90;;;;;;4918091;29;20040;-83
2023/09/01 05:56:13;;;;;;;4.20;2.55;;;15.00;99.90;;;;;;4916163;29;20036;-83
2023/09/01 05:58:38;;;;;;;6.28;2.95;;;15.00;99.90;;;;;;4920175;29;20036;-83
2023/09/01 06:01:04;;;;;;;3.25;2.40;;;15.10;99.90;;;;;;4916486;29;20036;-83
2023/09/01 06:03:29;;;;;;;3.67;2.60;;;15.20;99.90;;;;;;4918162;29;20154;-83
2023/09/01 06:05:55;;;;;;;4.20;2.72;;;15.20;99.90;;;;;;4918629;29;20047;-83
2023/09/01 06:08:20;;;;;;;3.72;2.15;;;15.30;99.90;;;;;;4919598;29;20134;-83
2023/09/01 06:10:46;;;;;;;3.08;2.33;;;15.40;99.90;;;;;;4917075;29;20032;-83
2023/09/01 06:13:11;;;;;;;5.85;2.80;;;15.50;99.90;;;;;;4917235;29;20497;-84
2023/09/01 06:15:37;;;;;;;2.95;2.15;;;15.60;99.90;;;;;;4916143;29;20588;-83
2023/09/01 06:18:03;;;;;;;4.20;2.78;;;15.70;99.90;;;;;;4917474;29;20036;-83
2023/09/01 06:20:28;;;;;;;6.32;2.15;;;15.70;99.90;;;;;;4915992;29;20028;-83
2023/09/01 06:22:54;;;;;;;4.32;2.50;;;15.90;99.90;;;;;;4915724;29;20036;-84
2023/09/01 06:25:20;;;;;;;4.20;2.10;;;16.00;99.90;;;;;;4916768;29;20032;-83
2023/09/01 06:27:47;;;;;;;7.35;2.88;;;16.10;99.90;;;;;;4916414;29;20020;-84
2023/09/01 06:30:12;;;;;;;6.32;2.15;;;16.20;99.90;;;;;;4916846;29;20044;-83
2023/09/01 06:32:38;;;;;;;3.40;1.80;;;16.40;99.90;;;;;;4915540;29;20398;-84
2023/09/01 06:35:04;;;;;;;4.85;2.17;;;16.50;99.90;;;;;;4914896;29;20094;-85
2023/09/01 06:37:30;;;;;;;5.70;2.90;;;16.60;99.90;;;;;;4917781;29;20043;-84
2023/09/01 06:39:55;;;;;;;4.30;2.00;;;16.70;99.90;;;;;;4915250;29;20666;-86
2023/09/01 06:42:21;;;;;;;5.50;2.42;;;16.70;99.90;;;;;;4917389;29;20047;-85
2023/09/01 06:44:47;;;;;;;3.17;2.03;;;16.80;99.90;;;;;;4917922;29;20110;-84
2023/09/01 06:47:13;;;;;;;3.63;2.00;;;16.80;99.90;;;;;;4914987;29;21014;-85
2023/09/01 06:49:38;;;;;;;5.18;2.20;;;16.90;99.90;;;;;;4914794;29;20028;-84
2023/09/01 06:52:04;;;;;;;4.07;1.95;;;16.90;99.90;;;;;;4916416;29;20031;-85
2023/09/01 06:54:30;;;;;;;4.40;2.00;;;17.00;99.90;;;;;;4916233;29;20032;-85
2023/09/01 06:56:55;;;;;;;4.65;2.00;;;17.10;99.90;;;;;;4916866;29;20028;-86
2023/09/01 06:59:21;;;;;;;3.88;2.03;;;17.20;99.90;;;;;;4914367;29;20028;-86
2023/09/01 07:01:46;;;;;;;4.60;2.00;;;17.30;99.90;;;;;;4916226;29;20040;-86
2023/09/01 07:04:12;;;;;;;4.93;2.08;;;17.30;99.90;;;;;;4917431;29;20137;-86
2023/09/01 07:06:38;;;;;;;5.68;2.28;;;17.30;99.90;;;;;;4916242;29;20036;-86
2023/09/01 07:09:03;;;;;;;3.05;1.70;;;17.40;99.90;;;;;;4915436;29;20067;-85
2023/09/01 07:11:29;;;;;;;3.70;1.90;;;17.50;99.90;;;;;;4914583;29;20051;-85
2023/09/01 07:13:55;;;;;;;4.72;2.10;;;17.60;99.90;;;;;;4914839;29;20039;-86
2023/09/01 07:16:20;;;;;;;3.72;2.00;;;17.60;99.90;;;;;;4916584;29;20024;-85
2023/09/01 07:18:46;;;;;;;3.13;1.80;;;17.70;99.90;;;;;;4915187;29;20040;-84
2023/09/01 07:21:11;;;;;;;2.63;1.77;;;17.80;99.90;;;;;;4917277;29;20035;-85
2023/09/01 07:23:37;;;;;;;3.42;2.15;;;17.80;99.90;;;;;;4915805;29;20028;-85
2023/09/01 07:26:03;;;;;;;4.45;1.52;;;17.90;99.90;;;;;;4911929;29;20036;-85
2023/09/01 07:28:29;;;;;;;2.00;1.63;;;18.00;99.90;;;;;;4915606;29;20083;-84
2023/09/01 07:30:55;;;;;;;3.55;1.98;;;18.10;99.90;;;;;;4914728;29;20038;-84
2023/09/01 07:33:20;;;;;;;3.72;1.90;;;18.30;99.90;;;;;;4916191;29;20066;-86
2023/09/01 07:35:50;;;;;;;4.10;1.88;;;18.50;99.90;;;;;;4915808;29;20036;-85
2023/09/01 07:38:16;;;;;;;3.38;1.95;;;18.60;99.90;;;;;;4918816;29;21471;-84
2023/09/01 07:40:43;;;;;;;3.17;1.80;;;18.70;99.90;;;;;;4915759;29;20032;-84
2023/09/01 07:43:09;;;;;;;4.90;1.83;;;18.90;99.90;;;;;;4916047;29;20095;-85
2023/09/01 07:45:35;;;;;;;4.00;1.83;;;18.90;99.90;;;;;;4914531;29;20479;-85
2023/09/01 07:48:00;;;;;;;3.00;1.85;;;18.90;99.90;;;;;;4914746;29;20028;-84
2023/09/01 07:50:30;;;;;;;5.60;2.10;;;18.90;99.90;;;;;;4914578;29;20036;-84
2023/09/01 07:52:59;;;;;;;2.67;1.70;;;19.00;99.90;;;;;;4915218;29;20067;-84
2023/09/01 07:55:25;;;;;;;3.15;1.67;;;19.10;99.90;;;;;;4915356;29;20031;-84
2023/09/01 07:57:51;;;;;;;3.60;2.00;;;19.10;99.90;;;;;;4913703;29;20078;-84
2023/09/01 08:00:17;;;;;;;3.25;1.80;;;19.10;99.90;;;;;;4920120;29;20110;-84
2023/09/01 08:02:42;;;;;;;2.05;1.40;;;19.10;99.90;;;;;;4921873;29;21407;-84
2023/09/01 08:05:09;;;;;;;3.53;1.70;;;19.10;99.90;;;;;;4922663;29;20031;-85
2023/09/01 08:07:36;;;;;;;3.03;1.70;;;19.10;99.90;;;;;;4921213;29;20043;-84
2023/09/01 08:10:02;;;;;;;4.82;1.85;;;19.10;99.90;;;;;;4921532;29;21083;-84
2023/09/01 08:12:28;;;;;;;4.82;1.55;;;19.10;99.90;;;;;;4921901;29;20028;-84
2023/09/01 08:14:54;;;;;;;4.07;1.80;;;19.10;99.90;;;;;;4921258;29;20043;-84
2023/09/01 08:17:20;;;;;;;3.35;1.60;;;19.20;99.90;;;;;;4921512;29;20028;-84
2023/09/01 08:19:50;;;;;;;3.22;1.65;;;19.30;99.90;;;;;;4920090;29;20441;-84
2023/09/01 08:22:16;;;;;;;3.85;1.60;;;19.40;99.90;;;;;;4921267;29;20040;-84
2023/09/01 08:24:43;;;;;;;3.80;1.52;;;19.50;99.90;;;;;;4920500;29;20040;-84
2023/09/01 08:27:09;;;;;;;6.38;1.60;;;19.60;99.90;;;;;;4921147;29;20031;-84
2023/09/01 08:29:34;;;;;;;7.10;2.10;;;19.70;99.90;;;;;;4921293;29;20732;-84
2023/09/01 08:32:00;;;;;;;3.50;1.60;;;19.90;99.90;;;;;;4924325;29;20102;-84
2023/09/01 08:34:27;;;;;;;4.75;2.03;;;20.00;99.90;;;;;;4921573;29;20438;-85
2023/09/01 08:36:52;;;;;;;4.53;1.60;;;20.20;99.90;;;;;;4922614;29;20028;-84
2023/09/01 08:39:18;;;;;;;2.38;1.73;;;20.30;99.90;;;;;;4919448;29;20035;-84
2023/09/01 08:41:44;;;;;;;2.33;1.30;;;20.30;99.90;;;;;;4921097;29;20039;-84
2023/09/01 08:44:12;;;;;;;2.17;1.33;;;20.40;99.90;;;;;;4923074;29;20083;-85
2023/09/01 08:46:37;;;;;;;3.95;1.55;;;20.40;99.90;;;;;;4921666;29;20029;-84
2023/09/01 08:49:04;;;;;;;4.05;1.90;;;20.50;99.90;;;;;;4920030;29;20047;-84
2023/09/01 08:51:31;;;;;;;3.30;1.88;;;20.60;99.90;;;;;;4920911;29;20478;-84
2023/09/01 08:53:56;;;;;;;3.63;1.60;;;20.70;99.90;;;;;;4919558;29;20032;-84
2023/09/01 08:56:22;;;;;;;3.35;1.55;;;20.90;99.90;;;;;;4921995;29;20506;-84
2023/09/01 08:58:49;;;;;;;5.32;1.83;;;21.10;99.90;;;;;;4919768;29;20032;-84
2023/09/01 09:01:16;;;;;;;4.13;1.40;;;21.20;99.90;;;;;;4921050;29;20024;-84
2023/09/01 09:03:42;;;;;;;2.60;1.40;;;21.20;99.90;;;;;;4921342;29;20107;-84
2023/09/01 09:06:12;;;;;;;3.35;1.45;;;21.30;99.90;;;;;;4920338;29;20028;-84
2023/09/01 09:08:38;;;;;;;2.97;1.90;;;21.50;99.90;;;;;;4921181;29;20086;-85
2023/09/01 09:11:13;;;;;;;3.95;1.42;;;21.70;99.90;;;;;;4917321;29;20024;-85
2023/09/01 09:13:39;;;;;;;2.80;1.40;;;21.80;99.90;;;;;;4918916;29;20442;-85
2023/09/01 09:16:11;;;;;;;3.78;1.73;;;21.90;99.90;;;;;;4919203;29;20039;-84
2023/09/01 09:18:40;;;;;;;2.22;1.70;;;22.10;99.90;;;;;;4916684;29;20118;-85
2023/09/01 09:21:23;;;;;;;2.78;1.35;;;22.30;99.90;;;;;;4918191;29;20054;-85
2023/09/01 09:23:49;;;;;;;3.38;1.75;;;22.30;99.90;;;;;;4918574;29;20024;-84
2023/09/01 09:26:15;;;;;;;3.85;1.65;;;22.40;99.90;;;;;;4917137;29;20030;-85
2023/09/01 09:28:41;;;;;;;5.82;1.30;;;22.60;99.90;;;;;;4917927;29;20515;-85
2023/09/01 09:31:08;;;;;;;7.18;1.70;;;22.70;99.90;;;;;;4917707;29;20059;-85
2023/09/01 09:33:34;;;;;;;3.03;1.30;;;22.70;99.90;;;;;;4917318;29;20057;-85
2023/09/01 09:36:00;;;;;;;4.15;1.55;;;22.70;99.90;;;;;;4916826;29;20078;-85
2023/09/01 09:38:41;;;;;;;2.70;1.35;;;22.70;99.90;;;;;;4916749;29;20024;-84
2023/09/01 09:41:07;;;;;;;3.40;1.42;;;22.90;99.90;;;;;;4916906;29;20030;-83
2023/09/01 09:43:46;;;;;;;2.75;1.40;;;23.00;99.90;;;;;;4918460;29;20122;-84
2023/09/01 09:46:13;;;;;;;2.13;1.20;;;23.10;99.90;;;;;;4918244;29;20115;-85
2023/09/01 09:48:39;;;;;;;4.18;1.40;;;23.20;99.90;;;;;;4918366;29;20032;-84
2023/09/01 09:51:07;;;;;;;4.05;1.50;;;23.20;99.90;;;;;;4918624;29;20119;-85
2023/09/01 09:53:38;;;;;;;2.35;1.38;;;23.40;99.90;;;;;;4918703;29;20038;-85
2023/09/01 09:56:33;;;;;;;3.40;1.65;;;23.40;99.90;;;;;;4917670;29;20120;-84
2023/09/01 09:59:03;;;;;;;;;;;23.50;99.90;;;;;;4913882;29;20094;-85
2023/09/01 10:01:31;;;;;;;3.22;1.50;;;23.50;99.90;;;;;;4919098;29;19921;-84
2023/09/01 10:03:58;;;;;;;5.05;1.60;;;23.40;99.90;;;;;;4918239;29;20031;-85
2023/09/01 10:06:24;;;;;;;4.57;1.35;;;23.40;99.90;;;;;;4917126;29;20034;-84
2023/09/01 10:08:52;;;;;;;3.38;1.45;;;23.60;99.90;;;;;;4916668;29;20688;-84
2023/09/01 10:11:18;;;;;;;3.78;1.60;;;23.80;99.90;;;;;;4916418;29;20103;-84
2023/09/01 10:13:45;;;;;;;3.55;1.40;;;24.20;99.90;;;;;;4918474;29;20044;-86
2023/09/01 10:16:13;;;;;;;4.80;1.80;;;24.40;99.90;;;;;;4917432;29;20032;-84
2023/09/01 10:18:44;;;;;;;4.32;1.45;;;24.50;99.90;;;;;;4915851;29;20491;-84
2023/09/01 10:21:11;;;;;;;5.15;1.63;;;24.50;99.90;;;;;;4916938;29;20039;-85
2023/09/01 10:23:37;;;;;;;3.40;1.42;;;24.60;99.90;;;;;;4916353;29;20106;-85
2023/09/01 10:26:18;;;;;;;7.10;1.70;;;24.60;99.90;;;;;;4917218;29;20031;-84
2023/09/01 10:29:03;;;;;;;4.00;1.70;;;24.80;99.90;;;;;;4916504;29;20032;-84
2023/09/01 10:31:29;;;;;;;2.70;1.33;;;25.00;99.90;;;;;;4915962;29;20043;-85
2023/09/01 10:34:15;;;;;;;3.17;1.52;;;25.00;99.90;;;;;;4917311;29;20035;-86
2023/09/01 10:36:44;;;;;;;2.90;1.55;;;25.00;99.90;;;;;;4917164;29;20030;-86
2023/09/01 10:39:22;;;;;;;3.05;1.42;;;25.00;99.90;;;;;;4916716;29;20040;-84
2023/09/01 10:42:02;;;;;;;2.47;1.30;;;24.90;99.90;;;;;;4917190;29;20038;-85
2023/09/01 10:45:06;;;;;;;4.57;1.25;;;25.00;99.90;;;;;;4919090;29;20901;-85
2023/09/01 10:47:31;;;;;;;5.10;1.70;;;24.80;99.90;;;;;;4906477;29;20048;-85
2023/09/01 10:49:58;;;;;;;3.35;1.38;;;24.80;99.90;;;;;;4916774;29;21052;-84
2023/09/01 10:52:24;;;;;;;5.20;2.10;;;24.60;99.90;;;;;;4915940;29;20019;-86
2023/09/01 10:55:08;;;;;;;3.47;1.40;;;24.40;99.90;;;;;;4916616;29;20036;-84
2023/09/01 10:57:48;;;;;;;3.13;1.53;;;24.20;99.90;;;;;;4915909;29;20494;-85
2023/09/01 11:00:26;;;;;;;3.47;1.40;;;24.00;99.90;;;;;;4915222;29;20032;-84
2023/09/01 11:02:52;;;;;;;2.25;1.60;;;23.90;99.90;;;;;;4915360;29;20032;-85
2023/09/01 11:05:36;;;;;;;3.28;1.40;;;23.90;99.90;;;;;;4915478;29;20110;-84
2023/09/01 11:08:15;;;;;;;3.45;1.33;;;24.00;99.90;;;;;;4915250;29;20036;-84
2023/09/01 11:10:41;;;;;;;2.88;1.30;;;24.10;99.90;;;;;;4918740;29;20027;-85
2023/09/01 11:13:17;;;;;;;3.28;1.52;;;24.20;99.90;;;;;;4915771;29;20036;-85
2023/09/01 11:15:47;;;;;;;4.32;1.40;;;24.50;99.90;;;;;;4916159;29;20563;-84
2023/09/01 11:18:21;;;;;;;3.20;1.60;;;24.70;99.90;;;;;;4915277;29;20432;-84
2023/09/01 11:20:49;;;;;;;2.20;1.20;;;24.90;99.90;;;;;;4915536;29;20039;-85
2023/09/01 11:23:25;;;;;;;2.85;1.42;;;25.10;99.90;;;;;;4917327;29;20138;-84
2023/09/01 11:26:00;;;;;;;4.03;1.45;;;25.30;99.90;;;;;;4915792;29;20032;-84
2023/09/01 11:28:27;;;;;;;2.47;1.52;;;25.20;99.90;;;;;;4915994;29;20487;-85
2023/09/01 11:30:57;;;;;;;2.08;1.42;;;25.20;99.90;;;;;;4916040;29;20055;-85
2023/09/01 11:33:25;;;;;;;3.38;1.30;;;25.30;99.90;;;;;;4915091;29;20065;-86
2023/09/01 11:36:07;;;;;;;2.92;1.30;;;25.40;99.90;;;;;;4918454;29;20038;-86
2023/09/01 11:38:36;;;;;;;4.88;1.58;;;25.60;99.90;;;;;;4916396;29;20024;-84
2023/09/01 11:41:03;;;;;;;3.55;1.30;;;25.80;99.90;;;;;;4915234;29;20118;-86
2023/09/01 11:43:29;;;;;;;3.15;1.58;;;25.80;99.90;;;;;;4915743;29;20683;-85
2023/09/01 11:45:56;;;;;;;4.30;1.40;;;25.70;99.90;;;;;;4915981;29;20031;-86
2023/09/01 11:48:24;;;;;;;3.55;1.50;;;25.50;99.90;;;;;;4913661;29;20027;-84
2023/09/01 11:50:53;;;;;;;4.75;1.27;;;25.20;99.90;;;;;;4915302;29;20055;-84
2023/09/01 11:53:27;;;;;;;2.70;1.20;;;24.90;99.90;;;;;;4914369;29;20110;-85
2023/09/01 11:56:01;;;;;;;2.40;1.30;;;24.70;99.90;;;;;;4917328;29;20028;-84
2023/09/01 11:58:47;;;;;;;2.67;1.40;;;24.40;99.90;;;;;;4916465;29;20038;-85
2023/09/01 12:01:15;;;;;;;2.17;1.23;;;24.20;99.90;;;;;;4917004;29;20525;-84
2023/09/01 12:03:45;;;;;;;2.30;1.33;;;23.90;99.90;;;;;;4914582;29;20073;-85
2023/09/01 12:06:22;;;;;;;2.30;1.20;;;23.70;99.90;;;;;;4915543;29;20032;-85
2023/09/01 12:08:48;;;;;;;2.10;1.30;;;23.50;99.90;;;;;;4918473;29;20034;-84
2023/09/01 12:11:15;;;;;;;5.97;1.40;;;23.40;99.90;;;;;;4915122;29;20055;-85
2023/09/01 12:13:43;;;;;;;3.22;1.67;;;23.40;99.90;;;;;;4917418;29;20048;-84
2023/09/01 12:16:18;;;;;;;2.53;1.58;;;23.40;99.90;;;;;;4915378;29;20035;-84
2023/09/01 12:18:44;;;;;;;2.28;1.40;;;23.60;99.90;;;;;;4918561;29;20094;-85
2023/09/01 12:21:10;;;;;;;2.72;1.60;;;23.90;99.90;;;;;;4916740;29;20150;-84
2023/09/01 12:23:38;;;;;;;2.83;1.15;;;24.10;99.90;;;;;;4914630;29;20031;-85
2023/09/01 12:26:04;;;;;;;3.00;1.73;;;24.40;99.90;;;;;;4916777;29;20040;-84
2023/09/01 12:28:32;;;;;;;3.17;1.45;;;24.90;99.90;;;;;;4916091;29;20083;-86
2023/09/01 12:30:59;;;;;;;1.95;1.20;;;25.50;99.90;;;;;;4913557;29;20028;-85
2023/09/01 12:33:25;;;;;;;3.95;1.30;;;25.90;99.90;;;;;;4915826;29;20040;-85
2023/09/01 12:35:51;;;;;;;4.57;1.77;;;26.10;99.90;;;;;;4916869;29;20039;-86
2023/09/01 12:38:18;;;;;;;6.18;1.40;;;26.10;99.90;;;;;;4916113;29;20032;-85
2023/09/01 12:40:44;;;;;;;2.97;1.60;;;25.80;99.90;;;;;;4915826;29;20384;-84
2023/09/01 12:43:09;;;;;;;2.50;1.30;;;25.80;99.90;;;;;;4916378;29;20034;-86
2023/09/01 12:45:35;;;;;;;2.72;1.40;;;26.00;99.90;;;;;;4917995;29;20059;-85
2023/09/01 12:48:01;;;;;;;3.30;1.27;;;26.30;99.90;;;;;;4917868;29;20582;-85
2023/09/01 12:50:27;;;;;;;1.77;1.40;;;26.20;99.90;;;;;;4919466;29;20802;-84